Time;durP1;ratioP1;P1;durP2;ratioP2;P2;SDS_P1;SDS_P2;PMS_P1;PMS_P2;Temp;Humidity;BMP_temperature;BMP_pressure;BME280_temperature;BME280_humidity;BME280_pressure;Samples;Min_cycle;Max_cycle;Signal;HPM_P1;HPM_P2
2021/11/07 00:02:25;;;;;;;30.08;8.75;;;;;;;;;;5040358;28;20045;-88
2021/11/07 00:05:03;;;;;;;22.27;7.32;;;;;;;;;;5030647;28;20083;-90
2021/11/07 00:07:59;;;;;;;21.50;8.07;;;;;;;;;;5009902;28;20056;-91
2021/11/07 00:10:37;;;;;;;9.35;4.38;;;;;;;;;;5026652;28;20079;-91
2021/11/07 00:13:13;;;;;;;25.60;7.15;;;;;;;;;;5022026;28;20180;-92
2021/11/07 00:15:39;;;;;;;15.90;3.72;;;;;;;;;;5020854;28;20092;-91
2021/11/07 00:18:12;;;;;;;22.13;5.50;;;;;;;;;;5041591;28;20127;-87
2021/11/07 00:20:47;;;;;;;15.07;5.03;;;;;;;;;;5027287;28;20045;-86
2021/11/07 00:23:41;;;;;;;21.63;6.72;;;;;;;;;;5039358;28;20049;-89
2021/11/07 00:26:12;;;;;;;23.67;5.05;;;;;;;;;;5038678;28;20049;-90
2021/11/07 00:28:58;;;;;;;14.80;4.70;;;;;;;;;;5011612;28;20067;-90
2021/11/07 00:31:32;;;;;;;21.75;4.50;;;;;;;;;;5046919;28;20053;-92
2021/11/07 00:41:39;;;;;;;20.15;6.25;;;;;;;;;;5039753;28;20048;-89
2021/11/07 00:44:09;;;;;;;26.65;6.35;;;;;;;;;;5022996;28;20080;-91
2021/11/07 00:46:49;;;;;;;27.90;7.13;;;;;;;;;;5023883;28;20060;-88
2021/11/07 00:49:24;;;;;;;34.28;7.03;;;;;;;;;;5022330;28;20044;-90
2021/11/07 00:52:15;;;;;;;27.55;6.80;;;;;;;;;;5041235;28;20530;-90
2021/11/07 00:54:48;;;;;;;26.42;6.70;;;;;;;;;;5039715;28;20060;-87
2021/11/07 01:00:03;;;;;;;34.53;7.43;;;;;;;;;;5042173;28;20079;-89
2021/11/07 01:02:35;;;;;;;34.88;7.18;;;;;;;;;;5005630;28;20598;-89
2021/11/07 01:05:02;;;;;;;42.92;6.88;;;;;;;;;;5039957;28;20189;-91
2021/11/07 01:07:28;;;;;;;30.85;6.72;;;;;;;;;;5039131;28;20453;-90
2021/11/07 01:09:55;;;;;;;32.08;7.53;;;;;;;;;;5006843;28;20041;-90
2021/11/07 01:12:22;;;;;;;31.15;6.35;;;;;;;;;;5022322;28;20087;-89
2021/11/07 01:14:52;;;;;;;43.03;7.75;;;;;;;;;;5038375;28;20044;-89
2021/11/07 01:17:19;;;;;;;27.83;6.53;;;;;;;;;;5038558;28;20068;-91
2021/11/07 01:19:45;;;;;;;35.33;7.00;;;;;;;;;;5021664;28;20045;-90
2021/11/07 01:22:17;;;;;;;32.28;6.88;;;;;;;;;;5025013;28;20052;-90
2021/11/07 01:24:53;;;;;;;29.35;5.68;;;;;;;;;;5009133;28;20049;-89
2021/11/07 01:27:27;;;;;;;35.50;6.32;;;;;;;;;;5009137;28;20055;-89
2021/11/07 01:29:56;;;;;;;31.90;6.10;;;;;;;;;;5024741;28;20039;-90
2021/11/07 01:32:24;;;;;;;36.17;6.07;;;;;;;;;;5030695;28;20052;-90
2021/11/07 01:35:00;;;;;;;26.20;5.43;;;;;;;;;;5020030;28;20048;-91
2021/11/07 01:37:32;;;;;;;34.20;6.30;;;;;;;;;;5008275;28;20043;-90
2021/11/07 01:40:17;;;;;;;33.05;5.95;;;;;;;;;;5026237;28;20172;-89
2021/11/07 01:42:53;;;;;;;37.03;5.93;;;;;;;;;;5008684;28;20045;-89
2021/11/07 01:45:24;;;;;;;28.90;6.75;;;;;;;;;;5012626;28;20098;-89
2021/11/07 01:47:54;;;;;;;25.73;5.72;;;;;;;;;;5033477;28;20139;-89
2021/11/07 01:50:20;;;;;;;33.30;6.32;;;;;;;;;;5045006;28;20076;-89
2021/11/07 01:52:53;;;;;;;39.70;6.35;;;;;;;;;;5036890;28;20041;-88
2021/11/07 01:55:20;;;;;;;18.77;5.03;;;;;;;;;;5031987;28;20150;-90
2021/11/07 01:57:49;;;;;;;27.92;5.57;;;;;;;;;;5021083;28;20053;-89
2021/11/07 02:00:16;;;;;;;28.00;6.18;;;;;;;;;;5018214;28;20053;-90
2021/11/07 02:02:42;;;;;;;31.35;6.13;;;;;;;;;;5031971;28;20072;-89
2021/11/07 02:05:08;;;;;;;32.97;5.35;;;;;;;;;;5027958;28;20045;-91
2021/11/07 02:07:35;;;;;;;30.73;5.13;;;;;;;;;;5027074;28;20056;-90
2021/11/07 02:10:01;;;;;;;28.27;5.47;;;;;;;;;;5025768;28;20066;-91
2021/11/07 02:12:27;;;;;;;30.13;6.40;;;;;;;;;;5042437;28;20045;-89
2021/11/07 02:14:53;;;;;;;28.83;5.20;;;;;;;;;;5025200;28;20045;-91
2021/11/07 02:17:20;;;;;;;23.73;6.90;;;;;;;;;;5028617;28;20057;-88
2021/11/07 02:19:47;;;;;;;28.50;5.15;;;;;;;;;;5031056;28;20053;-89
2021/11/07 02:22:13;;;;;;;25.38;5.18;;;;;;;;;;5027626;28;20045;-89
2021/11/07 02:24:41;;;;;;;23.00;5.07;;;;;;;;;;5026561;28;20151;-89
2021/11/07 02:27:07;;;;;;;24.30;4.35;;;;;;;;;;5025749;28;20056;-88
2021/11/07 02:29:36;;;;;;;27.73;5.28;;;;;;;;;;5039950;28;20144;-91
2021/11/07 02:32:02;;;;;;;23.25;5.57;;;;;;;;;;5022361;28;20056;-90
2021/11/07 02:34:29;;;;;;;23.58;5.18;;;;;;;;;;5041739;28;20212;-91
2021/11/07 02:36:56;;;;;;;21.13;4.60;;;;;;;;;;5020453;28;20059;-88
2021/11/07 02:39:22;;;;;;;30.98;5.38;;;;;;;;;;5037755;28;20072;-90
2021/11/07 02:41:48;;;;;;;35.58;5.47;;;;;;;;;;5020497;28;20063;-88
2021/11/07 02:44:34;;;;;;;31.75;6.03;;;;;;;;;;5020719;28;20138;-90
2021/11/07 02:47:04;;;;;;;29.77;5.72;;;;;;;;;;5023483;28;20068;-90
2021/11/07 02:49:30;;;;;;;26.38;5.18;;;;;;;;;;5041610;28;20174;-90
2021/11/07 02:51:57;;;;;;;32.97;5.90;;;;;;;;;;5039524;28;20067;-90
2021/11/07 02:54:23;;;;;;;27.17;5.43;;;;;;;;;;5025080;28;20497;-89
2021/11/07 02:56:51;;;;;;;35.75;6.65;;;;;;;;;;5044482;28;20060;-89
2021/11/07 02:59:19;;;;;;;37.05;7.10;;;;;;;;;;5024259;28;20037;-90
2021/11/07 03:01:45;;;;;;;30.58;5.88;;;;;;;;;;5022230;28;20057;-90
2021/11/07 03:04:11;;;;;;;22.48;4.28;;;;;;;;;;5025636;28;20056;-90
2021/11/07 03:06:37;;;;;;;34.88;6.35;;;;;;;;;;5025296;28;21385;-89
2021/11/07 03:09:08;;;;;;;33.90;6.43;;;;;;;;;;5023607;28;20068;-90
2021/11/07 03:11:42;;;;;;;35.33;6.20;;;;;;;;;;5026535;28;20045;-90
2021/11/07 03:14:09;;;;;;;36.47;5.95;;;;;;;;;;5022573;28;20128;-89
2021/11/07 03:16:36;;;;;;;34.90;6.03;;;;;;;;;;5023032;28;20060;-90
2021/11/07 03:19:02;;;;;;;38.47;6.65;;;;;;;;;;5019714;28;20578;-88
2021/11/07 03:21:28;;;;;;;31.25;5.43;;;;;;;;;;5039892;28;20037;-88
2021/11/07 03:23:55;;;;;;;30.40;6.03;;;;;;;;;;5040143;28;20080;-88
2021/11/07 03:26:24;;;;;;;32.17;5.18;;;;;;;;;;5024278;28;20052;-89
2021/11/07 03:28:54;;;;;;;28.85;4.95;;;;;;;;;;5023337;28;20040;-90
2021/11/07 03:34:11;;;;;;;24.90;4.85;;;;;;;;;;5022949;28;20051;-87
2021/11/07 03:36:51;;;;;;;35.53;5.07;;;;;;;;;;5026561;28;20048;-88
2021/11/07 03:39:18;;;;;;;27.73;5.18;;;;;;;;;;5028580;28;20052;-89
2021/11/07 03:41:45;;;;;;;29.85;4.60;;;;;;;;;;5045743;28;20043;-88
2021/11/07 03:44:11;;;;;;;24.15;4.30;;;;;;;;;;5047893;28;20124;-89
2021/11/07 03:46:38;;;;;;;27.63;4.45;;;;;;;;;;5033720;28;20513;-89
2021/11/07 03:49:05;;;;;;;19.67;3.72;;;;;;;;;;5044534;28;20916;-90
2021/11/07 03:51:32;;;;;;;21.02;4.22;;;;;;;;;;5042046;28;20045;-89
2021/11/07 03:53:58;;;;;;;24.23;3.65;;;;;;;;;;5009187;28;20056;-89
2021/11/07 03:56:25;;;;;;;23.83;3.20;;;;;;;;;;5027417;28;20060;-87
2021/11/07 03:58:51;;;;;;;17.25;3.55;;;;;;;;;;5044647;28;20068;-87
2021/11/07 04:01:18;;;;;;;22.80;3.85;;;;;;;;;;5029256;28;20045;-94
2021/11/07 04:03:44;;;;;;;19.63;3.60;;;;;;;;;;5029340;28;20059;-89
2021/11/07 04:06:12;;;;;;;19.90;3.70;;;;;;;;;;5047248;28;20056;-88
2021/11/07 04:08:38;;;;;;;22.27;3.63;;;;;;;;;;5030663;28;20314;-88
2021/11/07 04:11:05;;;;;;;21.23;4.03;;;;;;;;;;5032259;28;20045;-90
2021/11/07 04:13:32;;;;;;;24.38;3.92;;;;;;;;;;5033446;28;20041;-88
2021/11/07 04:15:58;;;;;;;23.92;4.18;;;;;;;;;;5009136;28;20487;-90
2021/11/07 04:18:24;;;;;;;24.40;4.53;;;;;;;;;;5012590;28;20037;-87
2021/11/07 04:20:50;;;;;;;20.88;3.88;;;;;;;;;;5045381;28;20510;-88
2021/11/07 04:23:16;;;;;;;28.73;4.40;;;;;;;;;;5026859;28;20049;-88
2021/11/07 04:25:42;;;;;;;31.30;4.38;;;;;;;;;;5042469;28;20045;-89
2021/11/07 04:28:08;;;;;;;20.73;3.95;;;;;;;;;;5045772;28;20048;-87
2021/11/07 04:30:36;;;;;;;24.60;5.25;;;;;;;;;;5045332;28;20053;-88
2021/11/07 04:33:02;;;;;;;31.88;4.97;;;;;;;;;;5043135;28;20487;-90
2021/11/07 04:35:31;;;;;;;28.15;4.55;;;;;;;;;;5043169;28;20037;-88
2021/11/07 04:37:57;;;;;;;29.98;5.03;;;;;;;;;;5024942;28;20080;-91
2021/11/07 04:40:26;;;;;;;22.35;4.82;;;;;;;;;;5023023;28;20063;-88
2021/11/07 04:42:53;;;;;;;19.75;3.38;;;;;;;;;;5024612;28;20045;-88
2021/11/07 04:45:19;;;;;;;29.08;4.22;;;;;;;;;;5045064;28;20148;-88
2021/11/07 04:47:45;;;;;;;27.55;4.03;;;;;;;;;;5007018;28;20510;-89
2021/11/07 04:50:12;;;;;;;25.15;5.15;;;;;;;;;;5046505;28;20048;-91
2021/11/07 04:52:39;;;;;;;23.80;4.55;;;;;;;;;;5025338;28;20060;-90
2021/11/07 04:55:06;;;;;;;21.65;3.95;;;;;;;;;;5029098;28;20238;-90
2021/11/07 04:57:32;;;;;;;19.80;2.83;;;;;;;;;;5028835;28;20049;-92
2021/11/07 04:59:58;;;;;;;14.95;2.83;;;;;;;;;;5044544;28;20049;-92
2021/11/07 05:02:25;;;;;;;16.92;2.08;;;;;;;;;;5043118;28;20092;-91
2021/11/07 05:04:54;;;;;;;17.40;2.83;;;;;;;;;;5043532;28;20041;-90
2021/11/07 05:07:21;;;;;;;13.50;2.35;;;;;;;;;;5043922;28;20060;-91
2021/11/07 05:09:48;;;;;;;15.70;2.63;;;;;;;;;;5024536;28;20044;-89
2021/11/07 05:12:14;;;;;;;14.98;2.80;;;;;;;;;;5024781;28;20041;-90
2021/11/07 05:14:40;;;;;;;15.82;2.35;;;;;;;;;;5025553;28;20048;-88
2021/11/07 05:17:06;;;;;;;18.65;2.70;;;;;;;;;;5026111;28;20102;-89
2021/11/07 05:19:36;;;;;;;20.55;3.42;;;;;;;;;;5025805;28;20053;-90
2021/11/07 05:22:02;;;;;;;16.70;2.58;;;;;;;;;;5026527;28;20539;-89
2021/11/07 05:24:28;;;;;;;19.77;2.95;;;;;;;;;;5042794;28;20044;-89
2021/11/07 05:26:54;;;;;;;22.15;2.75;;;;;;;;;;5040292;28;20098;-88
2021/11/07 05:29:20;;;;;;;25.75;2.80;;;;;;;;;;5041753;28;20127;-89
2021/11/07 05:31:46;;;;;;;19.10;2.67;;;;;;;;;;5025150;28;20106;-88
2021/11/07 05:34:12;;;;;;;17.40;2.28;;;;;;;;;;5043741;28;20045;-89
2021/11/07 05:36:41;;;;;;;14.38;2.53;;;;;;;;;;5028650;28;20502;-87
2021/11/07 05:39:07;;;;;;;17.30;2.67;;;;;;;;;;5026615;28;20499;-88
2021/11/07 05:41:34;;;;;;;12.85;2.42;;;;;;;;;;5006890;28;20053;-88
2021/11/07 05:44:00;;;;;;;16.13;2.25;;;;;;;;;;5027165;28;20131;-89
2021/11/07 05:46:26;;;;;;;16.42;2.42;;;;;;;;;;5025384;28;20045;-90
2021/11/07 05:48:52;;;;;;;19.90;2.92;;;;;;;;;;5026601;28;20049;-87
2021/11/07 05:51:19;;;;;;;22.65;2.92;;;;;;;;;;5009820;28;20052;-88
2021/11/07 05:53:45;;;;;;;16.27;3.38;;;;;;;;;;5023248;28;20041;-88
2021/11/07 05:56:11;;;;;;;16.30;2.70;;;;;;;;;;5024333;28;20428;-89
2021/11/07 05:58:37;;;;;;;15.23;2.58;;;;;;;;;;5026259;28;20044;-88
2021/11/07 06:01:04;;;;;;;19.35;2.92;;;;;;;;;;5023171;28;20065;-89
2021/11/07 06:03:30;;;;;;;17.02;2.50;;;;;;;;;;5028154;28;20049;-88
2021/11/07 06:05:56;;;;;;;13.55;2.10;;;;;;;;;;5040689;28;20052;-89
2021/11/07 06:08:22;;;;;;;15.98;2.10;;;;;;;;;;5010407;28;20055;-88
2021/11/07 06:10:48;;;;;;;13.05;2.00;;;;;;;;;;5028538;28;20049;-88
2021/11/07 06:13:15;;;;;;;18.38;3.50;;;;;;;;;;5024479;28;20391;-89
2021/11/07 06:15:41;;;;;;;15.15;2.75;;;;;;;;;;5022864;28;20143;-87
2021/11/07 06:18:08;;;;;;;17.15;3.22;;;;;;;;;;5023137;28;20143;-88
2021/11/07 06:20:34;;;;;;;20.10;3.22;;;;;;;;;;5042673;28;20059;-88
2021/11/07 06:23:01;;;;;;;15.30;3.13;;;;;;;;;;5022103;28;20045;-88
2021/11/07 06:25:27;;;;;;;12.70;2.60;;;;;;;;;;5041374;28;20787;-87
2021/11/07 06:27:54;;;;;;;20.58;3.45;;;;;;;;;;5044937;28;20562;-87
2021/11/07 06:30:20;;;;;;;17.27;2.60;;;;;;;;;;5039779;28;20175;-88
2021/11/07 06:32:46;;;;;;;11.80;1.90;;;;;;;;;;5022053;28;20408;-88
2021/11/07 06:35:14;;;;;;;18.48;2.78;;;;;;;;;;5023821;28;20052;-89
2021/11/07 06:37:41;;;;;;;17.02;2.40;;;;;;;;;;5023000;28;20045;-87
2021/11/07 06:40:10;;;;;;;17.15;2.67;;;;;;;;;;5040576;28;20153;-88
2021/11/07 06:42:36;;;;;;;17.02;2.65;;;;;;;;;;5021128;28;20072;-88
2021/11/07 06:45:03;;;;;;;16.08;2.72;;;;;;;;;;5011008;28;20057;-88
2021/11/07 06:47:29;;;;;;;23.75;3.00;;;;;;;;;;5046846;28;20045;-88
2021/11/07 06:49:56;;;;;;;23.13;3.47;;;;;;;;;;5044810;28;20653;-89
2021/11/07 06:52:22;;;;;;;18.88;3.08;;;;;;;;;;5006176;28;20103;-88
2021/11/07 06:54:49;;;;;;;22.70;2.80;;;;;;;;;;5022948;28;20521;-88
2021/11/07 06:57:15;;;;;;;15.50;3.10;;;;;;;;;;5030014;28;20055;-89
2021/11/07 06:59:42;;;;;;;27.15;3.13;;;;;;;;;;5025083;28;20060;-88
2021/11/07 07:02:09;;;;;;;19.25;2.67;;;;;;;;;;5007858;28;20142;-89
2021/11/07 07:04:35;;;;;;;22.70;2.83;;;;;;;;;;5023250;28;20037;-89
2021/11/07 07:07:02;;;;;;;17.27;2.83;;;;;;;;;;5045046;28;20504;-89
2021/11/07 07:09:32;;;;;;;12.07;2.03;;;;;;;;;;5022304;28;20490;-89
2021/11/07 07:12:09;;;;;;;18.38;3.22;;;;;;;;;;5026558;28;20059;-89
2021/11/07 07:14:49;;;;;;;13.63;2.10;;;;;;;;;;5049643;28;20056;-89
2021/11/07 07:28:19;;;;;;;18.55;2.58;;;;;;;;;;5035133;28;20048;-88
2021/11/07 07:30:39;;;;;;;21.13;2.83;;;;;;;;;;5039845;28;20052;-88
2021/11/07 07:35:34;;;;;;;12.32;2.42;;;;;;;;;;5029543;28;20048;-88
2021/11/07 07:38:00;;;;;;;14.55;2.55;;;;;;;;;;5010898;28;20056;-89
2021/11/07 07:40:26;;;;;;;17.05;2.50;;;;;;;;;;5044082;28;20070;-87
2021/11/07 07:42:53;;;;;;;22.80;4.07;;;;;;;;;;5026381;28;20048;-89
2021/11/07 07:45:19;;;;;;;16.95;2.72;;;;;;;;;;5034566;28;20084;-88
2021/11/07 07:47:45;;;;;;;14.50;2.38;;;;;;;;;;5021089;28;20117;-89
2021/11/07 07:50:13;;;;;;;18.90;3.15;;;;;;;;;;5033015;28;20041;-90
2021/11/07 07:52:40;;;;;;;20.67;4.15;;;;;;;;;;5027706;28;20040;-89
2021/11/07 07:55:08;;;;;;;25.95;3.30;;;;;;;;;;5031077;28;20053;-89
2021/11/07 07:57:34;;;;;;;17.92;3.50;;;;;;;;;;5060073;28;20048;-90
2021/11/07 08:00:00;;;;;;;24.92;3.05;;;;;;;;;;5045427;28;21469;-91
2021/11/07 08:02:26;;;;;;;19.52;3.22;;;;;;;;;;5030820;28;20125;-90
2021/11/07 08:04:52;;;;;;;20.35;3.42;;;;;;;;;;5027427;28;20048;-90
2021/11/07 08:07:18;;;;;;;15.75;3.30;;;;;;;;;;5032374;28;20110;-90
2021/11/07 08:09:45;;;;;;;14.70;2.95;;;;;;;;;;5010464;28;20075;-88
2021/11/07 08:12:11;;;;;;;15.32;2.78;;;;;;;;;;5027309;28;20037;-89
2021/11/07 08:14:37;;;;;;;24.05;3.92;;;;;;;;;;5026800;28;20049;-89
2021/11/07 08:17:04;;;;;;;17.52;3.72;;;;;;;;;;5024087;28;20036;-90
2021/11/07 08:19:30;;;;;;;19.83;3.20;;;;;;;;;;5028622;28;20049;-88
2021/11/07 08:21:57;;;;;;;21.17;3.55;;;;;;;;;;5026567;28;20049;-88
2021/11/07 08:24:23;;;;;;;20.23;4.00;;;;;;;;;;5009350;28;20083;-88
2021/11/07 08:26:49;;;;;;;21.15;2.95;;;;;;;;;;5044302;28;20395;-87
2021/11/07 08:29:16;;;;;;;19.45;3.63;;;;;;;;;;5030372;28;20548;-89
2021/11/07 08:31:45;;;;;;;17.52;2.88;;;;;;;;;;5029060;28;20040;-90
2021/11/07 08:34:11;;;;;;;16.13;4.40;;;;;;;;;;5029795;28;20049;-88
2021/11/07 08:36:53;;;;;;;15.13;3.08;;;;;;;;;;5046400;28;20041;-88
2021/11/07 08:39:26;;;;;;;20.02;3.28;;;;;;;;;;5042303;28;20045;-88
2021/11/07 08:42:02;;;;;;;;;;;;;;;;;;5044833;28;20484;-89
2021/11/07 09:01:08;;;;;;;16.25;2.80;;;;;;;;;;5043658;28;20104;-89
2021/11/07 09:06:40;;;;;;;16.85;2.80;;;;;;;;;;5043061;28;20570;-88
2021/11/07 09:09:01;;;;;;;15.85;2.42;;;;;;;;;;5023899;28;20053;-89
2021/11/07 09:11:27;;;;;;;19.90;2.63;;;;;;;;;;5026142;28;20049;-89
2021/11/07 09:13:53;;;;;;;21.02;3.10;;;;;;;;;;5040568;28;20107;-88
2021/11/07 09:16:19;;;;;;;15.90;2.80;;;;;;;;;;5043023;28;20045;-87
2021/11/07 09:18:45;;;;;;;19.17;3.30;;;;;;;;;;5022383;28;20041;-89
2021/11/07 09:21:24;;;;;;;23.17;3.28;;;;;;;;;;5026510;28;20131;-89
2021/11/07 09:23:54;;;;;;;18.08;2.97;;;;;;;;;;5039368;28;20045;-88
2021/11/07 09:26:41;;;;;;;16.95;3.15;;;;;;;;;;5025383;28;20092;-86
2021/11/07 09:29:11;;;;;;;23.25;4.22;;;;;;;;;;5041672;28;20124;-88
2021/11/07 09:31:48;;;;;;;22.80;3.58;;;;;;;;;;5011173;28;20163;-87
2021/11/07 09:34:43;;;;;;;18.38;3.63;;;;;;;;;;5022866;28;20043;-88
2021/11/07 09:37:24;;;;;;;17.00;2.83;;;;;;;;;;5028189;28;20055;-89
2021/11/07 09:39:55;;;;;;;21.63;3.42;;;;;;;;;;5025985;28;20551;-90
2021/11/07 09:44:49;;;;;;;21.27;3.75;;;;;;;;;;5044514;28;20049;-89
2021/11/07 09:47:16;;;;;;;21.95;3.80;;;;;;;;;;5028676;28;20492;-89
2021/11/07 09:49:48;;;;;;;20.27;3.80;;;;;;;;;;5009152;28;20041;-90
2021/11/07 09:52:33;;;;;;;16.75;3.30;;;;;;;;;;5014575;28;20091;-89
2021/11/07 09:55:01;;;;;;;21.02;3.45;;;;;;;;;;5045833;28;20094;-91
2021/11/07 09:57:28;;;;;;;18.45;3.78;;;;;;;;;;5029448;28;20056;-88
2021/11/07 09:59:56;;;;;;;13.50;3.85;;;;;;;;;;5025227;28;20056;-89
2021/11/07 10:02:25;;;;;;;18.05;3.38;;;;;;;;;;5043569;28;20475;-88
2021/11/07 10:04:53;;;;;;;18.77;2.90;;;;;;;;;;5031913;28;20045;-89
2021/11/07 10:07:21;;;;;;;17.33;3.00;;;;;;;;;;5047674;28;20049;-89
2021/11/07 10:09:58;;;;;;;19.02;3.67;;;;;;;;;;5040577;28;20049;-89
2021/11/07 10:12:38;;;;;;;17.58;3.15;;;;;;;;;;5025274;28;20049;-89
2021/11/07 10:15:07;;;;;;;16.45;2.90;;;;;;;;;;5041367;28;20041;-89
2021/11/07 10:17:40;;;;;;;25.58;4.07;;;;;;;;;;5043768;28;20415;-89
2021/11/07 10:22:57;;;;;;;18.08;3.25;;;;;;;;;;5045370;28;20087;-91
2021/11/07 10:25:30;;;;;;;23.02;3.53;;;;;;;;;;5054803;28;20053;-88
2021/11/07 10:27:58;;;;;;;19.55;3.25;;;;;;;;;;5056385;28;20771;-87
2021/11/07 10:30:27;;;;;;;19.30;4.28;;;;;;;;;;5039935;28;20041;-88
2021/11/07 10:33:05;;;;;;;23.08;3.50;;;;;;;;;;5040526;28;20057;-87
2021/11/07 10:43:53;;;;;;;20.08;3.22;;;;;;;;;;5040310;28;20182;-87
2021/11/07 10:46:42;;;;;;;19.15;3.50;;;;;;;;;;5020813;28;20471;-87
2021/11/07 10:52:13;;;;;;;17.33;3.05;;;;;;;;;;5038486;28;20048;-87
2021/11/07 10:54:43;;;;;;;17.40;2.88;;;;;;;;;;5045254;28;20060;-87
2021/11/07 10:57:14;;;;;;;14.57;2.65;;;;;;;;;;5042220;28;20407;-87
2021/11/07 10:59:41;;;;;;;19.83;3.47;;;;;;;;;;5040466;28;20084;-85
2021/11/07 11:02:26;;;;;;;21.23;3.70;;;;;;;;;;5039893;28;20045;-88
2021/11/07 11:04:58;;;;;;;19.75;3.28;;;;;;;;;;5041966;28;20075;-85
2021/11/07 11:07:24;;;;;;;16.10;2.92;;;;;;;;;;5018529;28;20067;-80
2021/11/07 11:10:18;;;;;;;19.27;3.50;;;;;;;;;;5045401;28;20041;-79
2021/11/07 11:13:06;;;;;;;17.58;2.95;;;;;;;;;;5042383;28;20747;-83
2021/11/07 11:15:39;;;;;;;16.52;3.08;;;;;;;;;;5063277;28;20041;-86
2021/11/07 11:18:34;;;;;;;21.13;3.67;;;;;;;;;;5045661;28;20175;-78
2021/11/07 11:21:11;;;;;;;21.00;4.50;;;;;;;;;;5029088;28;20053;-80
2021/11/07 11:24:09;;;;;;;19.33;3.13;;;;;;;;;;5045770;28;20488;-78
2021/11/07 11:32:06;;;;;;;20.77;2.72;;;;;;;;;;5044537;28;20128;-78
2021/11/07 11:34:37;;;;;;;24.05;3.42;;;;;;;;;;5029223;28;20045;-77
2021/11/07 11:37:22;;;;;;;22.25;3.30;;;;;;;;;;5042093;28;20046;-78
2021/11/07 11:39:57;;;;;;;18.00;3.13;;;;;;;;;;5022718;28;20056;-79
2021/11/07 11:42:29;;;;;;;20.58;3.53;;;;;;;;;;5047855;28;20068;-75
2021/11/07 11:44:57;;;;;;;21.92;4.10;;;;;;;;;;5045267;28;20053;-73
2021/11/07 11:47:37;;;;;;;21.80;3.85;;;;;;;;;;5033434;28;20049;-76
2021/11/07 12:00:26;;;;;;;24.60;4.80;;;;;;;;;;5042479;28;20510;-76
2021/11/07 12:03:09;;;;;;;25.25;3.40;;;;;;;;;;5045575;28;20071;-76
2021/11/07 12:06:15;;;;;;;20.90;4.53;;;;;;;;;;5038131;28;20059;-76
2021/11/07 12:08:57;;;;;;;27.23;4.22;;;;;;;;;;5057856;28;20088;-77
2021/11/07 12:14:11;;;;;;;21.55;4.07;;;;;;;;;;5046946;28;20455;-77
2021/11/07 12:16:44;;;;;;;25.50;4.13;;;;;;;;;;5049255;28;20052;-78
2021/11/07 12:19:11;;;;;;;21.33;4.05;;;;;;;;;;5051909;28;20057;-76
2021/11/07 12:21:50;;;;;;;25.05;5.13;;;;;;;;;;5033754;28;20501;-76
2021/11/07 12:24:16;;;;;;;25.17;4.40;;;;;;;;;;5048821;28;20060;-76
2021/11/07 12:26:43;;;;;;;17.33;3.92;;;;;;;;;;5045328;28;20080;-76
2021/11/07 12:29:09;;;;;;;19.70;4.25;;;;;;;;;;5017247;28;20495;-75
2021/11/07 12:31:35;;;;;;;19.88;3.60;;;;;;;;;;5033496;28;20063;-76
2021/11/07 12:34:22;;;;;;;21.15;3.53;;;;;;;;;;5050352;28;20045;-81
2021/11/07 12:42:21;;;;;;;21.77;3.63;;;;;;;;;;5042896;28;20099;-77
2021/11/07 12:44:51;;;;;;;24.02;4.20;;;;;;;;;;5047231;28;20498;-78
2021/11/07 12:47:22;;;;;;;20.23;4.22;;;;;;;;;;5034301;28;20057;-77
2021/11/07 12:49:59;;;;;;;19.25;3.90;;;;;;;;;;5034850;28;20111;-79
2021/11/07 12:52:25;;;;;;;19.77;4.18;;;;;;;;;;5042521;28;20038;-79
2021/11/07 12:54:51;;;;;;;25.98;4.20;;;;;;;;;;5028942;28;20103;-79
2021/11/07 12:57:19;;;;;;;18.27;3.90;;;;;;;;;;5015397;28;20060;-80
2021/11/07 12:59:49;;;;;;;30.02;4.40;;;;;;;;;;5029790;28;20103;-79
2021/11/07 13:02:39;;;;;;;22.52;4.50;;;;;;;;;;5031177;28;20136;-78
2021/11/07 13:08:05;;;;;;;27.63;4.57;;;;;;;;;;5051663;28;20044;-77
2021/11/07 13:11:15;;;;;;;30.05;4.78;;;;;;;;;;5044126;28;20076;-85
2021/11/07 13:13:52;;;;;;;23.45;5.07;;;;;;;;;;5066292;28;20475;-79
2021/11/07 13:26:59;;;;;;;29.20;4.32;;;;;;;;;;5048773;28;20044;-78
2021/11/07 13:34:56;;;;;;;20.42;3.65;;;;;;;;;;5041809;28;20056;-85
2021/11/07 13:37:40;;;;;;;14.55;3.70;;;;;;;;;;5041282;28;20037;-84
2021/11/07 13:40:06;;;;;;;;;;;;;;;;;;5049497;28;20057;-79
2021/11/07 13:42:39;;;;;;;22.85;3.05;;;;;;;;;;5055994;28;20375;-74
2021/11/07 13:45:08;;;;;;;17.23;3.03;;;;;;;;;;5035393;28;20037;-84
2021/11/07 13:47:39;;;;;;;22.45;4.00;;;;;;;;;;5046026;28;20053;-78
2021/11/07 13:50:10;;;;;;;17.55;3.22;;;;;;;;;;5047308;28;20045;-81
2021/11/07 13:52:39;;;;;;;15.77;3.17;;;;;;;;;;5050711;28;20049;-81
2021/11/07 13:55:12;;;;;;;19.58;3.10;;;;;;;;;;5049996;28;20119;-78
2021/11/07 13:57:38;;;;;;;25.43;4.00;;;;;;;;;;5047463;28;21027;-82
2021/11/07 14:00:09;;;;;;;21.80;3.28;;;;;;;;;;5043175;28;20053;-85
2021/11/07 14:02:35;;;;;;;19.30;2.92;;;;;;;;;;5035768;28;20483;-88
2021/11/07 14:05:02;;;;;;;16.08;2.30;;;;;;;;;;5050884;28;20166;-78
2021/11/07 14:07:29;;;;;;;14.40;3.00;;;;;;;;;;5049337;28;20060;-80
2021/11/07 14:09:56;;;;;;;16.30;3.20;;;;;;;;;;5046679;28;20041;-82
2021/11/07 14:12:43;;;;;;;15.35;2.67;;;;;;;;;;5033966;28;20048;-79
2021/11/07 14:15:15;;;;;;;16.77;2.72;;;;;;;;;;5062836;28;20057;-81
2021/11/07 14:17:44;;;;;;;18.92;2.72;;;;;;;;;;5021363;28;20049;-80
2021/11/07 14:20:10;;;;;;;13.90;2.92;;;;;;;;;;5041300;28;20063;-80
2021/11/07 14:22:39;;;;;;;10.57;2.25;;;;;;;;;;5049362;28;20040;-78
2021/11/07 14:25:06;;;;;;;12.07;2.90;;;;;;;;;;5039581;28;20132;-80
2021/11/07 14:27:44;;;;;;;13.02;2.60;;;;;;;;;;5035191;28;20041;-81
2021/11/07 14:30:17;;;;;;;15.73;2.13;;;;;;;;;;5031179;28;20045;-81
2021/11/07 14:32:45;;;;;;;21.25;3.25;;;;;;;;;;5042697;28;20041;-84
2021/11/07 14:35:20;;;;;;;20.67;3.70;;;;;;;;;;5041028;28;20088;-82
2021/11/07 14:37:51;;;;;;;19.13;2.88;;;;;;;;;;5047590;28;20045;-81
2021/11/07 14:40:26;;;;;;;15.93;2.97;;;;;;;;;;5051000;28;20053;-77
2021/11/07 14:49:00;;;;;;;11.50;2.47;;;;;;;;;;5045654;28;20057;-77
2021/11/07 14:56:42;;;;;;;17.10;2.60;;;;;;;;;;5046238;28;20053;-82
2021/11/07 15:02:22;;;;;;;14.63;2.78;;;;;;;;;;5034340;28;20049;-77
2021/11/07 15:04:47;;;;;;;22.42;4.85;;;;;;;;;;5020051;28;20463;-74
2021/11/07 15:07:27;;;;;;;20.08;3.50;;;;;;;;;;5049293;28;20142;-76
2021/11/07 15:10:11;;;;;;;14.98;2.78;;;;;;;;;;5041213;28;20046;-77
2021/11/07 15:17:47;;;;;;;17.65;3.42;;;;;;;;;;5048834;28;20037;-77
2021/11/07 15:20:25;;;;;;;16.70;3.10;;;;;;;;;;5030190;28;20053;-85
2021/11/07 15:22:52;;;;;;;23.10;4.32;;;;;;;;;;5046799;28;20053;-76
2021/11/07 15:25:19;;;;;;;20.25;2.90;;;;;;;;;;5047417;28;20048;-78
2021/11/07 15:28:00;;;;;;;20.95;3.45;;;;;;;;;;5044651;28;20045;-76
2021/11/07 15:30:26;;;;;;;27.33;2.95;;;;;;;;;;5062999;28;20048;-79
2021/11/07 15:32:52;;;;;;;17.67;2.90;;;;;;;;;;5048785;28;20518;-76
2021/11/07 15:35:18;;;;;;;19.13;3.03;;;;;;;;;;5050235;28;20041;-79
2021/11/07 15:37:44;;;;;;;19.98;3.17;;;;;;;;;;5051639;28;20051;-76
2021/11/07 15:40:11;;;;;;;29.42;3.60;;;;;;;;;;5033493;28;20041;-77
2021/11/07 15:42:38;;;;;;;25.65;4.22;;;;;;;;;;5050709;28;20442;-77
2021/11/07 15:45:11;;;;;;;23.23;3.40;;;;;;;;;;5035029;28;20127;-81
2021/11/07 15:47:42;;;;;;;30.25;5.25;;;;;;;;;;5051909;28;20049;-80
2021/11/07 15:52:51;;;;;;;30.83;12.85;;;;;;;;;;5050080;28;20083;-81
2021/11/07 16:04:04;;;;;;;27.85;7.80;;;;;;;;;;5020847;28;20045;-79
2021/11/07 16:11:53;;;;;;;25.73;3.78;;;;;;;;;;5050973;28;20069;-84
2021/11/07 16:14:38;;;;;;;24.42;6.05;;;;;;;;;;5047458;28;20049;-79
2021/11/07 16:17:17;;;;;;;20.45;7.88;;;;;;;;;;5035377;28;20064;-77
2021/11/07 16:19:45;;;;;;;21.38;4.70;;;;;;;;;;5036509;28;20136;-79
2021/11/07 16:22:12;;;;;;;28.58;6.38;;;;;;;;;;5034197;28;20052;-77
2021/11/07 16:24:40;;;;;;;22.85;4.45;;;;;;;;;;5049375;28;20045;-77
2021/11/07 16:27:08;;;;;;;17.58;3.25;;;;;;;;;;5049890;28;20080;-79
2021/11/07 16:29:34;;;;;;;27.50;4.93;;;;;;;;;;5050737;28;20123;-78
2021/11/07 16:32:08;;;;;;;19.67;4.80;;;;;;;;;;5049483;28;20053;-78
2021/11/07 16:34:51;;;;;;;21.08;5.55;;;;;;;;;;5031007;28;20045;-76
2021/11/07 16:37:23;;;;;;;22.40;5.45;;;;;;;;;;5050761;28;20049;-78
2021/11/07 16:39:58;;;;;;;22.15;4.40;;;;;;;;;;5062035;28;20072;-79
2021/11/07 16:42:24;;;;;;;19.70;3.25;;;;;;;;;;5033710;28;20037;-78
2021/11/07 16:44:51;;;;;;;21.63;4.30;;;;;;;;;;5032956;28;20140;-77
2021/11/07 16:47:21;;;;;;;21.08;4.78;;;;;;;;;;5047251;28;20052;-78
2021/11/07 16:49:47;;;;;;;18.23;3.88;;;;;;;;;;5017735;28;20053;-78
2021/11/07 16:52:25;;;;;;;20.00;3.20;;;;;;;;;;5048755;28;20145;-79
2021/11/07 16:54:58;;;;;;;23.50;3.58;;;;;;;;;;5050748;28;20106;-79
2021/11/07 16:57:26;;;;;;;18.92;3.67;;;;;;;;;;5047789;28;20037;-81
2021/11/07 17:00:06;;;;;;;18.42;4.47;;;;;;;;;;5034409;28;20454;-79
2021/11/07 17:02:38;;;;;;;23.20;5.60;;;;;;;;;;5050407;28;20133;-80
2021/11/07 17:05:13;;;;;;;21.00;5.38;;;;;;;;;;5049142;28;20045;-78
2021/11/07 17:10:06;;;;;;;20.27;4.18;;;;;;;;;;5045587;28;20515;-79
2021/11/07 17:12:35;;;;;;;16.17;3.10;;;;;;;;;;5033927;28;20041;-79
2021/11/07 17:15:06;;;;;;;14.75;3.00;;;;;;;;;;5031162;28;20055;-81